Sabana De La Mar, Dominican Republic

7:57 AM AST on June 03, 2015 (GMT -0400)
Marina Puerto Bahia | | Change Station
CLOSE
Current Station
Personal Weather Station
Location: Puerto Bahia, Samana
Elevation: 105 ft
Nearby Weather Stations

Elev 105 ft 19.20 °N, 69.35 °W | Updated 7 seconds ago

Scattered Clouds
Scattered Clouds
77.2 °F
Feels Like 79 °F
N
0.2
Wind Variable Wind from East
Gusts 2.5 mph

Today
High -- | Low -- °F
--% Chance of Precip.
Yesterday
High -- | Low -- °F
Precip. -- in
5:59 AM 7:12 PM
Full, 99% visible
Pressure 29.92 in
Visibility 6.2 miles
Clouds Scattered Clouds 1600 ft
Scattered Clouds 30000 ft
Heat Index 79 °F
Dew Point 74 °F
Humidity 89%
Rainfall 0.00 in
Snow Depth Not available.
UV 1.0 out of 12
Pollen Not available.
Air Quality Not available.
Flu Activity Not available.
METAR MDCY 031100Z 00000KT 9999 SCT016 SCT300 22/22 Q1013

More Conditions Fewer Conditions

Pressure 29.92 in
Visibility 6.2 miles
Clouds Scattered Clouds 1600 ft
Scattered Clouds 30000 ft
Heat Index 79 °F
Dew Point 74 °F
Humidity 89%
Rainfall 0.00 in
Snow Depth Not available.
UV 1.0 out of 12
Pollen Not available.
Air Quality Not available.
Flu Activity Not available.
METAR MDCY 031100Z 00000KT 9999 SCT016 SCT300 22/22 Q1013

More Conditions Fewer Conditions

10-Day Weather Forecast

×

Almanac

Astronomy

Jun. 03, 2015 Rise Set
Actual Time
Civil Twilight
Nautical Twilight
Astronomical Twilight
Moon
Length of Visible Light
Length of Day
Tomorrow will be .
, % of the Moon is Illuminated

Today's Extremes

Country Highs Country Lows

Community

WunderPhotos

Upload Photos

1,826,205 photos uploaded!

WunderBlogs® & News

Nearby

Air Quality

  Air Quality AQ Index Pollutant
Not available.

Snow Depth

Station Depth Elevation

Earthquake Activity

City Distance Mag. Time & Date
Minimum magnitude displayed is 2.5.

Coastal Water Temperatures

Place Temperature

Stations

Nearby Weather Stations

Station Location Temp. Windchill Dew Point Humidity Wind Precip. Elev Updated Type